sensor_id;sensor_type;location;lat;lon;timestamp;P1;durP1;ratioP1;P2;durP2;ratioP2
49153;SDS011;49455;52.252;9.124;2022-07-23T00:02:10;9.48;;;6.95;;
49153;SDS011;49455;52.252;9.124;2022-07-23T00:07:10;11.60;;;7.25;;
49153;SDS011;49455;52.252;9.124;2022-07-23T00:12:11;11.30;;;7.35;;
49153;SDS011;49455;52.252;9.124;2022-07-23T00:17:11;10.48;;;7.65;;
49153;SDS011;49455;52.252;9.124;2022-07-23T00:22:11;12.35;;;8.55;;
49153;SDS011;49455;52.252;9.124;2022-07-23T00:27:12;11.20;;;8.00;;
49153;SDS011;49455;52.252;9.124;2022-07-23T00:32:12;13.02;;;7.57;;
49153;SDS011;49455;52.252;9.124;2022-07-23T00:37:13;12.18;;;8.05;;
49153;SDS011;49455;52.252;9.124;2022-07-23T00:42:13;13.13;;;8.65;;
49153;SDS011;49455;52.252;9.124;2022-07-23T00:47:14;12.07;;;9.13;;
49153;SDS011;49455;52.252;9.124;2022-07-23T00:52:14;14.70;;;9.27;;
49153;SDS011;49455;52.252;9.124;2022-07-23T00:57:15;13.93;;;9.95;;
49153;SDS011;49455;52.252;9.124;2022-07-23T01:02:16;15.27;;;9.90;;
49153;SDS011;49455;52.252;9.124;2022-07-23T01:07:16;15.65;;;10.05;;
49153;SDS011;49455;52.252;9.124;2022-07-23T01:12:18;15.95;;;10.93;;
49153;SDS011;49455;52.252;9.124;2022-07-23T01:17:19;14.57;;;10.50;;
49153;SDS011;49455;52.252;9.124;2022-07-23T01:22:19;15.82;;;11.02;;
49153;SDS011;49455;52.252;9.124;2022-07-23T01:27:20;16.52;;;10.85;;
49153;SDS011;49455;52.252;9.124;2022-07-23T01:32:24;12.57;;;10.38;;
49153;SDS011;49455;52.252;9.124;2022-07-23T01:37:24;15.10;;;10.88;;
49153;SDS011;49455;52.252;9.124;2022-07-23T01:42:25;13.63;;;10.57;;
49153;SDS011;49455;52.252;9.124;2022-07-23T01:47:26;16.08;;;11.95;;
49153;SDS011;49455;52.252;9.124;2022-07-23T01:52:28;14.00;;;10.23;;
49153;SDS011;49455;52.252;9.124;2022-07-23T01:57:29;13.68;;;10.90;;
49153;SDS011;49455;52.252;9.124;2022-07-23T02:02:29;16.75;;;12.25;;
49153;SDS011;49455;52.252;9.124;2022-07-23T02:07:30;14.88;;;10.52;;
49153;SDS011;49455;52.252;9.124;2022-07-23T02:12:32;16.15;;;10.98;;
49153;SDS011;49455;52.252;9.124;2022-07-23T02:17:33;17.63;;;11.38;;
49153;SDS011;49455;52.252;9.124;2022-07-23T02:22:35;17.00;;;10.98;;
49153;SDS011;49455;52.252;9.124;2022-07-23T02:27:36;15.68;;;11.73;;
49153;SDS011;49455;52.252;9.124;2022-07-23T02:32:39;15.48;;;12.07;;
49153;SDS011;49455;52.252;9.124;2022-07-23T05:16:24;16.73;;;13.43;;
49153;SDS011;49455;52.252;9.124;2022-07-23T05:21:27;19.30;;;13.75;;
49153;SDS011;49455;52.252;9.124;2022-07-23T05:26:28;19.48;;;13.95;;
49153;SDS011;49455;52.252;9.124;2022-07-23T05:31:28;19.60;;;13.68;;
49153;SDS011;49455;52.252;9.124;2022-07-23T05:36:30;19.48;;;13.70;;
49153;SDS011;49455;52.252;9.124;2022-07-23T05:41:31;23.55;;;15.05;;
49153;SDS011;49455;52.252;9.124;2022-07-23T05:46:32;19.52;;;13.82;;
49153;SDS011;49455;52.252;9.124;2022-07-23T05:51:39;23.67;;;13.38;;
49153;SDS011;49455;52.252;9.124;2022-07-23T05:56:39;21.88;;;13.57;;
49153;SDS011;49455;52.252;9.124;2022-07-23T06:01:40;17.13;;;12.77;;
49153;SDS011;49455;52.252;9.124;2022-07-23T06:06:43;19.55;;;14.45;;
49153;SDS011;49455;52.252;9.124;2022-07-23T06:11:45;19.52;;;12.90;;
49153;SDS011;49455;52.252;9.124;2022-07-23T06:16:46;17.75;;;14.27;;
49153;SDS011;49455;52.252;9.124;2022-07-23T06:21:46;23.73;;;15.23;;
49153;SDS011;49455;52.252;9.124;2022-07-23T06:26:47;20.35;;;13.30;;
49153;SDS011;49455;52.252;9.124;2022-07-23T06:31:48;15.83;;;10.80;;
49153;SDS011;49455;52.252;9.124;2022-07-23T06:36:48;16.40;;;13.95;;
49153;SDS011;49455;52.252;9.124;2022-07-23T06:41:49;18.10;;;13.48;;
49153;SDS011;49455;52.252;9.124;2022-07-23T06:46:51;18.13;;;13.50;;
49153;SDS011;49455;52.252;9.124;2022-07-23T06:51:52;17.73;;;13.38;;
49153;SDS011;49455;52.252;9.124;2022-07-23T06:56:52;20.85;;;12.20;;
49153;SDS011;49455;52.252;9.124;2022-07-23T07:01:53;16.98;;;11.30;;
49153;SDS011;49455;52.252;9.124;2022-07-23T07:06:53;18.55;;;11.20;;
49153;SDS011;49455;52.252;9.124;2022-07-23T07:11:54;14.80;;;9.68;;
49153;SDS011;49455;52.252;9.124;2022-07-23T07:16:54;14.60;;;11.43;;
49153;SDS011;49455;52.252;9.124;2022-07-23T07:21:55;19.27;;;11.15;;
49153;SDS011;49455;52.252;9.124;2022-07-23T07:26:55;14.25;;;10.80;;
49153;SDS011;49455;52.252;9.124;2022-07-23T07:31:56;17.50;;;9.00;;
49153;SDS011;49455;52.252;9.124;2022-07-23T07:36:56;11.85;;;9.30;;
49153;SDS011;49455;52.252;9.124;2022-07-23T07:41:57;11.80;;;7.72;;
49153;SDS011;49455;52.252;9.124;2022-07-23T07:46:58;11.90;;;7.93;;
49153;SDS011;49455;52.252;9.124;2022-07-23T07:51:58;12.70;;;7.93;;
49153;SDS011;49455;52.252;9.124;2022-07-23T07:56:59;8.05;;;7.15;;
49153;SDS011;49455;52.252;9.124;2022-07-23T08:01:59;11.02;;;6.20;;
49153;SDS011;49455;52.252;9.124;2022-07-23T08:07:00;10.20;;;6.27;;
49153;SDS011;49455;52.252;9.124;2022-07-23T08:12:00;10.87;;;6.40;;
49153;SDS011;49455;52.252;9.124;2022-07-23T08:17:01;8.30;;;6.07;;
49153;SDS011;49455;52.252;9.124;2022-07-23T08:22:01;6.72;;;4.88;;
49153;SDS011;49455;52.252;9.124;2022-07-23T08:27:01;8.82;;;5.47;;
49153;SDS011;49455;52.252;9.124;2022-07-23T08:32:02;9.93;;;5.38;;
49153;SDS011;49455;52.252;9.124;2022-07-23T08:37:03;8.95;;;4.82;;
49153;SDS011;49455;52.252;9.124;2022-07-23T08:42:03;44.00;;;8.33;;
49153;SDS011;49455;52.252;9.124;2022-07-23T08:47:04;11.35;;;5.18;;
49153;SDS011;49455;52.252;9.124;2022-07-23T08:52:04;10.00;;;5.13;;
49153;SDS011;49455;52.252;9.124;2022-07-23T08:57:05;6.60;;;4.40;;
49153;SDS011;49455;52.252;9.124;2022-07-23T09:02:05;8.60;;;4.40;;
49153;SDS011;49455;52.252;9.124;2022-07-23T09:07:06;7.57;;;3.83;;
49153;SDS011;49455;52.252;9.124;2022-07-23T09:12:07;8.32;;;5.13;;
49153;SDS011;49455;52.252;9.124;2022-07-23T09:17:12;8.45;;;4.65;;
49153;SDS011;49455;52.252;9.124;2022-07-23T09:22:23;8.90;;;4.25;;
49153;SDS011;49455;52.252;9.124;2022-07-23T09:27:25;6.38;;;4.03;;
49153;SDS011;49455;52.252;9.124;2022-07-23T09:33:02;5.60;;;3.90;;
49153;SDS011;49455;52.252;9.124;2022-07-23T09:38:10;4.05;;;3.22;;
49153;SDS011;49455;52.252;9.124;2022-07-23T09:43:11;5.43;;;3.07;;
49153;SDS011;49455;52.252;9.124;2022-07-23T09:48:26;4.95;;;3.40;;
49153;SDS011;49455;52.252;9.124;2022-07-23T09:53:26;4.03;;;2.90;;
49153;SDS011;49455;52.252;9.124;2022-07-23T09:58:27;6.37;;;3.17;;
49153;SDS011;49455;52.252;9.124;2022-07-23T10:03:28;9.43;;;3.08;;
49153;SDS011;49455;52.252;9.124;2022-07-23T10:09:07;7.95;;;3.17;;
49153;SDS011;49455;52.252;9.124;2022-07-23T10:14:31;9.27;;;3.00;;
49153;SDS011;49455;52.252;9.124;2022-07-23T10:19:34;7.03;;;2.75;;
49153;SDS011;49455;52.252;9.124;2022-07-23T10:24:58;7.83;;;2.90;;
49153;SDS011;49455;52.252;9.124;2022-07-23T10:30:01;6.22;;;2.70;;
49153;SDS011;49455;52.252;9.124;2022-07-23T10:35:09;122.28;;;13.95;;
49153;SDS011;49455;52.252;9.124;2022-07-23T10:40:20;8.52;;;2.78;;
49153;SDS011;49455;52.252;9.124;2022-07-23T10:50:30;12.38;;;3.33;;
49153;SDS011;49455;52.252;9.124;2022-07-23T11:00:31;5.30;;;2.43;;
49153;SDS011;49455;52.252;9.124;2022-07-23T11:05:41;5.00;;;2.17;;
49153;SDS011;49455;52.252;9.124;2022-07-23T11:10:49;6.22;;;2.30;;
49153;SDS011;49455;52.252;9.124;2022-07-23T11:16:17;3.72;;;1.80;;
49153;SDS011;49455;52.252;9.124;2022-07-23T11:37:00;5.22;;;1.92;;
49153;SDS011;49455;52.252;9.124;2022-07-23T11:42:03;4.63;;;1.80;;
49153;SDS011;49455;52.252;9.124;2022-07-23T11:47:05;5.57;;;1.90;;
49153;SDS011;49455;52.252;9.124;2022-07-23T11:52:08;2.45;;;1.75;;
49153;SDS011;49455;52.252;9.124;2022-07-23T11:57:12;4.75;;;1.70;;
49153;SDS011;49455;52.252;9.124;2022-07-23T12:02:13;3.80;;;1.63;;
49153;SDS011;49455;52.252;9.124;2022-07-23T12:07:24;3.83;;;2.00;;
49153;SDS011;49455;52.252;9.124;2022-07-23T12:12:26;4.90;;;1.58;;
49153;SDS011;49455;52.252;9.124;2022-07-23T12:17:28;4.40;;;1.93;;
49153;SDS011;49455;52.252;9.124;2022-07-23T12:22:43;4.15;;;1.77;;
49153;SDS011;49455;52.252;9.124;2022-07-23T12:33:31;3.60;;;1.60;;
49153;SDS011;49455;52.252;9.124;2022-07-23T12:38:37;2.40;;;1.50;;
49153;SDS011;49455;52.252;9.124;2022-07-23T12:43:48;4.10;;;2.00;;
49153;SDS011;49455;52.252;9.124;2022-07-23T12:53:50;4.83;;;1.83;;
49153;SDS011;49455;52.252;9.124;2022-07-23T12:58:58;2.55;;;1.73;;
49153;SDS011;49455;52.252;9.124;2022-07-23T13:34:51;4.53;;;1.60;;
49153;SDS011;49455;52.252;9.124;2022-07-23T13:39:51;1.97;;;1.50;;
49153;SDS011;49455;52.252;9.124;2022-07-23T13:44:52;3.50;;;1.43;;
49153;SDS011;49455;52.252;9.124;2022-07-23T13:49:52;2.07;;;1.43;;
49153;SDS011;49455;52.252;9.124;2022-07-23T13:54:53;1.73;;;1.30;;
49153;SDS011;49455;52.252;9.124;2022-07-23T13:59:53;3.73;;;1.60;;
49153;SDS011;49455;52.252;9.124;2022-07-23T14:04:56;8.43;;;2.03;;
49153;SDS011;49455;52.252;9.124;2022-07-23T14:09:57;1.88;;;1.40;;
49153;SDS011;49455;52.252;9.124;2022-07-23T14:14:58;4.00;;;1.40;;
49153;SDS011;49455;52.252;9.124;2022-07-23T14:19:58;3.40;;;1.70;;
49153;SDS011;49455;52.252;9.124;2022-07-23T14:24:59;4.13;;;1.60;;
49153;SDS011;49455;52.252;9.124;2022-07-23T14:29:59;1.60;;;1.30;;
49153;SDS011;49455;52.252;9.124;2022-07-23T14:40:11;3.47;;;1.13;;
49153;SDS011;49455;52.252;9.124;2022-07-23T14:45:12;2.80;;;1.40;;
49153;SDS011;49455;52.252;9.124;2022-07-23T14:50:15;4.82;;;2.00;;
49153;SDS011;49455;52.252;9.124;2022-07-23T14:55:15;2.87;;;1.33;;
49153;SDS011;49455;52.252;9.124;2022-07-23T15:00:16;3.90;;;1.10;;
49153;SDS011;49455;52.252;9.124;2022-07-23T15:05:16;3.57;;;1.70;;
49153;SDS011;49455;52.252;9.124;2022-07-23T15:10:17;2.87;;;1.43;;
49153;SDS011;49455;52.252;9.124;2022-07-23T15:15:17;2.63;;;1.37;;
49153;SDS011;49455;52.252;9.124;2022-07-23T15:20:18;6.03;;;1.67;;
49153;SDS011;49455;52.252;9.124;2022-07-23T15:25:18;1.80;;;1.20;;
49153;SDS011;49455;52.252;9.124;2022-07-23T15:30:19;2.03;;;1.60;;
49153;SDS011;49455;52.252;9.124;2022-07-23T15:35:19;3.93;;;2.13;;
49153;SDS011;49455;52.252;9.124;2022-07-23T15:40:20;2.77;;;1.03;;
49153;SDS011;49455;52.252;9.124;2022-07-23T15:45:20;1.60;;;1.10;;
49153;SDS011;49455;52.252;9.124;2022-07-23T15:50:21;2.70;;;1.33;;
49153;SDS011;49455;52.252;9.124;2022-07-23T15:55:26;1.63;;;1.10;;
49153;SDS011;49455;52.252;9.124;2022-07-23T16:00:27;4.90;;;1.42;;
49153;SDS011;49455;52.252;9.124;2022-07-23T16:05:27;1.60;;;1.23;;
49153;SDS011;49455;52.252;9.124;2022-07-23T16:10:28;3.40;;;1.40;;
49153;SDS011;49455;52.252;9.124;2022-07-23T16:15:28;2.80;;;1.60;;
49153;SDS011;49455;52.252;9.124;2022-07-23T16:20:29;1.67;;;1.33;;
49153;SDS011;49455;52.252;9.124;2022-07-23T16:25:29;3.47;;;1.40;;
49153;SDS011;49455;52.252;9.124;2022-07-23T16:30:30;3.93;;;1.80;;
49153;SDS011;49455;52.252;9.124;2022-07-23T16:35:30;2.40;;;1.20;;
49153;SDS011;49455;52.252;9.124;2022-07-23T16:40:31;3.30;;;1.50;;
49153;SDS011;49455;52.252;9.124;2022-07-23T16:45:32;2.80;;;1.15;;
49153;SDS011;49455;52.252;9.124;2022-07-23T16:50:33;1.50;;;1.40;;
49153;SDS011;49455;52.252;9.124;2022-07-23T16:55:33;2.93;;;1.27;;
49153;SDS011;49455;52.252;9.124;2022-07-23T17:00:34;3.70;;;1.50;;
49153;SDS011;49455;52.252;9.124;2022-07-23T17:05:34;3.80;;;1.55;;
49153;SDS011;49455;52.252;9.124;2022-07-23T17:10:35;1.67;;;1.23;;
49153;SDS011;49455;52.252;9.124;2022-07-23T17:15:35;2.37;;;1.20;;
49153;SDS011;49455;52.252;9.124;2022-07-23T17:20:36;2.80;;;1.57;;
49153;SDS011;49455;52.252;9.124;2022-07-23T17:25:36;2.20;;;1.60;;
49153;SDS011;49455;52.252;9.124;2022-07-23T17:30:37;3.17;;;1.47;;
49153;SDS011;49455;52.252;9.124;2022-07-23T17:35:37;3.33;;;1.57;;
49153;SDS011;49455;52.252;9.124;2022-07-23T17:40:39;3.15;;;1.70;;
49153;SDS011;49455;52.252;9.124;2022-07-23T17:45:40;2.90;;;1.50;;
49153;SDS011;49455;52.252;9.124;2022-07-23T17:50:41;1.27;;;1.10;;
49153;SDS011;49455;52.252;9.124;2022-07-23T17:55:41;1.98;;;1.40;;
49153;SDS011;49455;52.252;9.124;2022-07-23T18:00:42;1.40;;;1.27;;
49153;SDS011;49455;52.252;9.124;2022-07-23T18:05:42;2.57;;;1.13;;
49153;SDS011;49455;52.252;9.124;2022-07-23T18:10:43;1.30;;;1.20;;
49153;SDS011;49455;52.252;9.124;2022-07-23T18:15:43;2.73;;;1.20;;
49153;SDS011;49455;52.252;9.124;2022-07-23T18:20:44;3.60;;;2.47;;
49153;SDS011;49455;52.252;9.124;2022-07-23T18:25:44;3.83;;;2.30;;
49153;SDS011;49455;52.252;9.124;2022-07-23T18:30:45;2.67;;;1.80;;
49153;SDS011;49455;52.252;9.124;2022-07-23T18:35:46;2.50;;;1.80;;
49153;SDS011;49455;52.252;9.124;2022-07-23T18:40:46;1.50;;;1.40;;
49153;SDS011;49455;52.252;9.124;2022-07-23T18:45:47;2.50;;;1.50;;
49153;SDS011;49455;52.252;9.124;2022-07-23T18:50:47;1.90;;;1.30;;
49153;SDS011;49455;52.252;9.124;2022-07-23T18:55:48;3.50;;;1.30;;
49153;SDS011;49455;52.252;9.124;2022-07-23T19:00:48;1.40;;;1.30;;
49153;SDS011;49455;52.252;9.124;2022-07-23T19:05:49;4.33;;;1.60;;
49153;SDS011;49455;52.252;9.124;2022-07-23T19:10:50;2.07;;;1.73;;
49153;SDS011;49455;52.252;9.124;2022-07-23T19:15:51;2.53;;;1.30;;
49153;SDS011;49455;52.252;9.124;2022-07-23T19:20:51;2.03;;;1.53;;
49153;SDS011;49455;52.252;9.124;2022-07-23T19:25:52;5.07;;;1.43;;
49153;SDS011;49455;52.252;9.124;2022-07-23T19:30:52;2.73;;;1.40;;
49153;SDS011;49455;52.252;9.124;2022-07-23T19:35:53;1.57;;;1.17;;
49153;SDS011;49455;52.252;9.124;2022-07-23T19:40:53;2.87;;;1.53;;
49153;SDS011;49455;52.252;9.124;2022-07-23T19:45:54;1.27;;;1.17;;
49153;SDS011;49455;52.252;9.124;2022-07-23T19:50:54;3.60;;;1.50;;
49153;SDS011;49455;52.252;9.124;2022-07-23T19:55:55;1.70;;;1.20;;
49153;SDS011;49455;52.252;9.124;2022-07-23T20:00:55;2.70;;;1.80;;
49153;SDS011;49455;52.252;9.124;2022-07-23T20:05:56;2.30;;;1.53;;
49153;SDS011;49455;52.252;9.124;2022-07-23T20:10:56;2.00;;;1.30;;
49153;SDS011;49455;52.252;9.124;2022-07-23T20:15:57;3.90;;;1.40;;
49153;SDS011;49455;52.252;9.124;2022-07-23T20:20:57;2.50;;;1.80;;
49153;SDS011;49455;52.252;9.124;2022-07-23T20:25:58;2.60;;;1.90;;
49153;SDS011;49455;52.252;9.124;2022-07-23T20:30:59;4.07;;;2.90;;
49153;SDS011;49455;52.252;9.124;2022-07-23T20:35:59;3.97;;;1.87;;
49153;SDS011;49455;52.252;9.124;2022-07-23T20:41:00;3.93;;;1.90;;
49153;SDS011;49455;52.252;9.124;2022-07-23T20:46:00;4.00;;;1.87;;
49153;SDS011;49455;52.252;9.124;2022-07-23T20:51:01;1.97;;;1.80;;
49153;SDS011;49455;52.252;9.124;2022-07-23T20:56:01;3.03;;;1.67;;
49153;SDS011;49455;52.252;9.124;2022-07-23T21:01:03;4.78;;;1.85;;
49153;SDS011;49455;52.252;9.124;2022-07-23T21:06:03;11.63;;;10.10;;
49153;SDS011;49455;52.252;9.124;2022-07-23T21:11:04;5.27;;;4.77;;
49153;SDS011;49455;52.252;9.124;2022-07-23T21:16:05;2.77;;;2.07;;
49153;SDS011;49455;52.252;9.124;2022-07-23T21:21:06;4.10;;;1.50;;
49153;SDS011;49455;52.252;9.124;2022-07-23T21:26:06;2.80;;;1.92;;
49153;SDS011;49455;52.252;9.124;2022-07-23T21:31:07;6.30;;;1.90;;
49153;SDS011;49455;52.252;9.124;2022-07-23T21:36:08;3.57;;;1.90;;
49153;SDS011;49455;52.252;9.124;2022-07-23T21:41:09;2.70;;;1.80;;
49153;SDS011;49455;52.252;9.124;2022-07-23T21:46:12;4.38;;;3.08;;
49153;SDS011;49455;52.252;9.124;2022-07-23T21:51:12;3.93;;;2.63;;
49153;SDS011;49455;52.252;9.124;2022-07-23T21:56:13;3.97;;;2.50;;
49153;SDS011;49455;52.252;9.124;2022-07-23T22:01:14;3.97;;;2.00;;
49153;SDS011;49455;52.252;9.124;2022-07-23T22:06:14;4.13;;;2.00;;
49153;SDS011;49455;52.252;9.124;2022-07-23T22:11:15;2.47;;;2.27;;
49153;SDS011;49455;52.252;9.124;2022-07-23T22:16:15;3.40;;;2.30;;
49153;SDS011;49455;52.252;9.124;2022-07-23T22:21:16;5.10;;;2.40;;
49153;SDS011;49455;52.252;9.124;2022-07-23T22:26:16;2.70;;;2.38;;
49153;SDS011;49455;52.252;9.124;2022-07-23T22:31:17;4.43;;;2.55;;
49153;SDS011;49455;52.252;9.124;2022-07-23T22:36:20;4.65;;;1.90;;
49153;SDS011;49455;52.252;9.124;2022-07-23T22:41:21;3.75;;;2.17;;
49153;SDS011;49455;52.252;9.124;2022-07-23T22:46:21;3.67;;;2.10;;
49153;SDS011;49455;52.252;9.124;2022-07-23T22:51:22;3.25;;;2.30;;
49153;SDS011;49455;52.252;9.124;2022-07-23T22:56:23;3.45;;;2.30;;
49153;SDS011;49455;52.252;9.124;2022-07-23T23:01:23;5.80;;;2.22;;
49153;SDS011;49455;52.252;9.124;2022-07-23T23:06:24;3.50;;;2.03;;
49153;SDS011;49455;52.252;9.124;2022-07-23T23:11:25;4.30;;;2.40;;
49153;SDS011;49455;52.252;9.124;2022-07-23T23:16:25;3.53;;;2.30;;
49153;SDS011;49455;52.252;9.124;2022-07-23T23:21:25;3.83;;;2.03;;
49153;SDS011;49455;52.252;9.124;2022-07-23T23:26:26;2.50;;;2.20;;
49153;SDS011;49455;52.252;9.124;2022-07-23T23:31:26;4.32;;;2.40;;
49153;SDS011;49455;52.252;9.124;2022-07-23T23:36:27;3.13;;;2.33;;
49153;SDS011;49455;52.252;9.124;2022-07-23T23:41:27;4.20;;;2.42;;
49153;SDS011;49455;52.252;9.124;2022-07-23T23:46:28;3.38;;;2.22;;
49153;SDS011;49455;52.252;9.124;2022-07-23T23:51:28;5.88;;;2.40;;
49153;SDS011;49455;52.252;9.124;2022-07-23T23:56:29;3.03;;;2.55;;
